Time;durP1;ratioP1;P1;durP2;ratioP2;P2;SDS_P1;SDS_P2;PMS_P1;PMS_P2;Temp;Humidity;BMP_temperature;BMP_pressure;BME280_temperature;BME280_humidity;BME280_pressure;Samples;Min_cycle;Max_cycle;Signal;HPM_P1;HPM_P2
2023/12/09 00:01:26;;;;;;;;;;;10.50;99.90;;;;;;5076287;28;20003;-77
2023/12/09 00:03:51;;;;;;;;;;;10.60;99.90;;;;;;5075987;28;19916;-77
2023/12/09 00:06:18;;;;;;;;;;;10.60;99.90;;;;;;5087546;28;19974;-77
2023/12/09 00:08:43;;;;;;;;;;;10.60;99.90;;;;;;5075266;28;19913;-77
2023/12/09 00:11:09;;;;;;;;;;;10.60;99.90;;;;;;5092304;28;19999;-77
2023/12/09 00:13:35;;;;;;;;;;;10.60;99.90;;;;;;5079107;28;19913;-80
2023/12/09 00:16:00;;;;;;;;;;;10.60;99.90;;;;;;5094509;28;19912;-80
2023/12/09 00:18:26;;;;;;;;;;;10.60;99.90;;;;;;5096235;28;19908;-80
2023/12/09 00:20:51;;;;;;;;;;;10.60;99.90;;;;;;5095813;28;19914;-77
2023/12/09 00:23:16;;;;;;;;;;;10.50;99.90;;;;;;5096011;28;19908;-77
2023/12/09 00:25:42;;;;;;;;;;;10.30;99.90;;;;;;5090689;28;19922;-77
2023/12/09 00:28:08;;;;;;;;;;;10.20;99.90;;;;;;5086870;28;19912;-80
2023/12/09 00:30:34;;;;;;;;;;;10.20;99.90;;;;;;5088436;28;20353;-77
2023/12/09 00:32:59;;;;;;;;;;;10.20;99.90;;;;;;5075938;28;20379;-78
2023/12/09 00:35:24;;;;;;;;;;;10.20;99.90;;;;;;5075777;28;19957;-77
2023/12/09 00:37:50;;;;;;;;;;;10.30;99.90;;;;;;5089221;28;19957;-77
2023/12/09 00:40:16;;;;;;;;;;;10.30;99.90;;;;;;5095713;28;19908;-77
2023/12/09 00:42:42;;;;;;;;;;;10.20;99.90;;;;;;5095674;28;20446;-77
2023/12/09 00:45:08;;;;;;;;;;;10.20;99.90;;;;;;5095885;28;19985;-77
2023/12/09 00:47:33;;;;;;;;;;;10.20;99.90;;;;;;5095857;28;19995;-77
2023/12/09 00:49:59;;;;;;;;;;;10.20;99.90;;;;;;5095503;28;19908;-77
2023/12/09 00:52:24;;;;;;;;;;;10.20;99.90;;;;;;5095365;28;19908;-77
2023/12/09 00:54:50;;;;;;;;;;;10.20;99.90;;;;;;5095442;28;19981;-80
2023/12/09 00:57:15;;;;;;;;;;;10.30;99.90;;;;;;5077782;28;19998;-77
2023/12/09 00:59:41;;;;;;;;;;;10.30;99.90;;;;;;5075108;28;19908;-77
2023/12/09 01:02:06;;;;;;;;;;;10.30;99.90;;;;;;5074636;28;19912;-77
2023/12/09 01:04:32;;;;;;;;;;;10.30;99.90;;;;;;5075965;28;19909;-77
2023/12/09 01:06:57;;;;;;;;;;;10.40;99.90;;;;;;5092547;28;19909;-80
2023/12/09 01:09:23;;;;;;;;;;;10.40;99.90;;;;;;5094690;28;19999;-77
2023/12/09 01:11:48;;;;;;;;;;;10.40;99.90;;;;;;5091804;28;19921;-77
2023/12/09 01:14:14;;;;;;;;;;;10.50;99.90;;;;;;5074869;28;19913;-77
2023/12/09 01:16:40;;;;;;;;;;;10.50;99.90;;;;;;5074857;28;20401;-80
2023/12/09 01:19:06;;;;;;;;;;;10.50;99.90;;;;;;5074723;28;19993;-77
2023/12/09 01:21:31;;;;;;;;;;;10.60;99.90;;;;;;5074723;28;20375;-77
2023/12/09 01:23:57;;;;;;;;;;;10.60;99.90;;;;;;5078083;28;20050;-77
2023/12/09 01:26:23;;;;;;;;;;;10.60;99.90;;;;;;5086991;28;19917;-77
2023/12/09 01:28:48;;;;;;;;;;;10.70;99.90;;;;;;5089820;28;19958;-77
2023/12/09 01:31:13;;;;;;;;;;;10.80;99.90;;;;;;5081682;28;19909;-77
2023/12/09 01:33:39;;;;;;;;;;;10.90;99.90;;;;;;5074652;28;19909;-77
2023/12/09 01:36:04;;;;;;;;;;;11.00;99.90;;;;;;5074505;28;19964;-77
2023/12/09 01:38:30;;;;;;;;;;;11.10;99.90;;;;;;5074331;28;20311;-77
2023/12/09 01:40:55;;;;;;;;;;;11.10;99.90;;;;;;5074310;28;19908;-77
2023/12/09 01:43:22;;;;;;;;;;;11.20;99.90;;;;;;5074368;28;20294;-77
2023/12/09 01:45:48;;;;;;;;;;;11.20;99.90;;;;;;5074216;28;19912;-76
2023/12/09 01:48:14;;;;;;;;;;;11.40;99.90;;;;;;5074363;28;20006;-76
2023/12/09 01:50:40;;;;;;;;;;;11.50;99.90;;;;;;5072943;28;19995;-78
2023/12/09 01:53:06;;;;;;;;;;;11.40;99.90;;;;;;5074164;28;19952;-76
2023/12/09 01:55:32;;;;;;;;;;;11.40;99.90;;;;;;5073241;28;19913;-75
2023/12/09 01:57:57;;;;;;;;;;;11.40;99.90;;;;;;5074052;28;19958;-75
2023/12/09 02:00:23;;;;;;;;;;;11.40;99.90;;;;;;5072584;28;20361;-78
2023/12/09 02:02:48;;;;;;;;;;;11.40;99.90;;;;;;5074365;28;19912;-79
2023/12/09 02:05:14;;;;;;;;;;;11.40;99.90;;;;;;5076371;28;20004;-75
2023/12/09 02:07:39;;;;;;;;;;;11.40;99.90;;;;;;5078205;28;19962;-79
2023/12/09 02:10:05;;;;;;;;;;;11.40;99.90;;;;;;5073860;28;19913;-76
2023/12/09 02:12:37;;;;;;;;;;;11.40;99.90;;;;;;5077213;28;19977;-75
2023/12/09 02:15:05;;;;;;;;;;;11.50;99.90;;;;;;5073573;28;19920;-75
2023/12/09 02:17:39;;;;;;;;;;;11.50;99.90;;;;;;5073679;28;19909;-75
2023/12/09 02:20:07;;;;;;;;;;;11.40;99.90;;;;;;5073825;28;19954;-76
2023/12/09 02:22:32;;;;;;;;;;;11.40;99.90;;;;;;5072975;28;19956;-75
2023/12/09 02:24:58;;;;;;;;;;;11.30;99.90;;;;;;5087522;28;20346;-76
2023/12/09 02:27:31;;;;;;;;;;;11.30;99.90;;;;;;5084575;28;20287;-76
2023/12/09 02:29:57;;;;;;;;;;;11.30;99.90;;;;;;5073308;28;20290;-76
2023/12/09 02:32:24;;;;;;;;;;;11.20;99.90;;;;;;5073392;28;19912;-76
2023/12/09 02:34:51;;;;;;;;;;;11.20;99.90;;;;;;5073592;28;19919;-76
2023/12/09 02:37:17;;;;;;;;;;;11.30;99.90;;;;;;5073653;28;19915;-76
2023/12/09 02:39:42;;;;;;;;;;;11.30;99.90;;;;;;5073466;28;19908;-79
2023/12/09 02:42:09;;;;;;;;;;;11.30;99.90;;;;;;5079709;28;19908;-75
2023/12/09 02:44:35;;;;;;;;;;;11.40;99.90;;;;;;5093317;28;19908;-79
2023/12/09 02:47:00;;;;;;;;;;;11.40;99.90;;;;;;5093476;28;19916;-76
2023/12/09 02:49:26;;;;;;;;;;;11.30;99.90;;;;;;5092154;28;19908;-76
2023/12/09 02:51:51;;;;;;;;;;;11.30;99.90;;;;;;5093329;28;20010;-76
2023/12/09 02:54:17;;;;;;;;;;;11.10;99.90;;;;;;5093318;28;19908;-76
2023/12/09 02:56:42;;;;;;;;;;;10.90;99.90;;;;;;5080524;28;19912;-80
2023/12/09 02:59:08;;;;;;;;;;;10.90;99.90;;;;;;5071894;28;19947;-77
2023/12/09 03:01:33;;;;;;;;;;;10.90;99.90;;;;;;5073228;28;20302;-76
2023/12/09 03:03:59;;;;;;;;;;;10.80;99.90;;;;;;5072472;28;20467;-77
2023/12/09 03:06:24;;;;;;;;;;;10.90;99.90;;;;;;5087324;28;19965;-77
2023/12/09 03:08:50;;;;;;;;;;;10.90;99.90;;;;;;5077298;28;20310;-79
2023/12/09 03:11:15;;;;;;;;;;;10.90;99.90;;;;;;5077122;28;19920;-78
2023/12/09 03:13:41;;;;;;;;;;;10.90;99.90;;;;;;5077275;28;20333;-78
2023/12/09 03:16:07;;;;;;;;;;;10.90;99.90;;;;;;5077298;28;19912;-78
2023/12/09 03:18:32;;;;;;;;;;;11.00;99.90;;;;;;5085356;28;19915;-79
2023/12/09 03:20:58;;;;;;;;;;;11.10;99.90;;;;;;5076140;28;20015;-79
2023/12/09 03:23:23;;;;;;;;;;;11.20;99.90;;;;;;5075664;28;19908;-79
2023/12/09 03:25:49;;;;;;;;;;;11.20;99.90;;;;;;5081038;28;20387;-78
2023/12/09 03:28:14;;;;;;;;;;;11.20;99.90;;;;;;5085859;28;19939;-80
2023/12/09 03:30:40;;;;;;;;;;;11.20;99.90;;;;;;5068596;28;19952;-80
2023/12/09 03:33:05;;;;;;;;;;;11.30;99.90;;;;;;5056892;28;19915;-79
2023/12/09 03:35:30;;;;;;;;;;;11.30;99.90;;;;;;5072039;28;19919;-79
2023/12/09 03:37:56;;;;;;;;;;;11.20;99.90;;;;;;5056844;28;19909;-78
2023/12/09 03:40:21;;;;;;;;;;;11.10;99.90;;;;;;5056844;28;19915;-78
2023/12/09 03:42:47;;;;;;;;;;;11.10;99.90;;;;;;5056580;28;20360;-79
2023/12/09 03:45:12;;;;;;;;;;;11.20;99.90;;;;;;5056702;28;19913;-79
2023/12/09 03:47:38;;;;;;;;;;;11.20;99.90;;;;;;5062472;28;19936;-78
2023/12/09 03:50:04;;;;;;;;;;;11.30;99.90;;;;;;5075195;28;19954;-79
2023/12/09 03:52:29;;;;;;;;;;;11.30;99.90;;;;;;5076455;28;19957;-77
2023/12/09 03:54:55;;;;;;;;;;;11.40;99.90;;;;;;5076155;28;19912;-77
2023/12/09 03:57:20;;;;;;;;;;;11.40;99.90;;;;;;5076293;28;19909;-77
2023/12/09 03:59:46;;;;;;;;;;;11.40;99.90;;;;;;5076238;28;19915;-79
2023/12/09 04:02:11;;;;;;;;;;;11.40;99.90;;;;;;5076445;28;19909;-77
2023/12/09 04:04:40;;;;;;;;;;;11.40;99.90;;;;;;5075291;28;19908;-77
2023/12/09 04:07:06;;;;;;;;;;;11.40;99.90;;;;;;5078622;28;20007;-77
2023/12/09 04:09:31;;;;;;;;;;;11.40;99.90;;;;;;5076067;28;20046;-79
2023/12/09 04:11:57;;;;;;;;;;;11.40;99.90;;;;;;5085762;28;20398;-77
2023/12/09 04:14:22;;;;;;;;;;;11.40;99.90;;;;;;5076174;28;19912;-79
2023/12/09 04:16:48;;;;;;;;;;;11.40;99.90;;;;;;5075441;28;19919;-77
2023/12/09 04:19:13;;;;;;;;;;;11.40;99.90;;;;;;5075986;28;19913;-76
2023/12/09 04:21:39;;;;;;;;;;;11.50;99.90;;;;;;5076128;28;19908;-79
2023/12/09 04:24:04;;;;;;;;;;;11.50;99.90;;;;;;5075812;28;19908;-79
2023/12/09 04:26:30;;;;;;;;;;;11.50;99.90;;;;;;5082177;28;19908;-77
2023/12/09 04:28:55;;;;;;;;;;;11.50;99.90;;;;;;5080048;28;19908;-76
2023/12/09 04:31:21;;;;;;;;;;;11.60;99.90;;;;;;5076091;28;19908;-76
2023/12/09 04:33:46;;;;;;;;;;;11.70;99.90;;;;;;5075377;28;19916;-76
2023/12/09 04:36:12;;;;;;;;;;;11.70;99.90;;;;;;5074289;28;19969;-76
2023/12/09 04:38:38;;;;;;;;;;;11.70;99.90;;;;;;5075594;28;20283;-80
2023/12/09 04:41:04;;;;;;;;;;;11.80;99.90;;;;;;5075669;28;19921;-77
2023/12/09 04:43:29;;;;;;;;;;;11.80;99.90;;;;;;5075489;28;20398;-76
2023/12/09 04:45:55;;;;;;;;;;;11.70;99.90;;;;;;5075286;28;19969;-76
2023/12/09 04:48:23;;;;;;;;;;;11.70;99.90;;;;;;5075087;28;19958;-80
2023/12/09 04:50:49;;;;;;;;;;;11.70;99.90;;;;;;5076142;28;19915;-78
2023/12/09 04:53:14;;;;;;;;;;;11.70;99.90;;;;;;5075283;28;19908;-78
2023/12/09 04:55:40;;;;;;;;;;;11.70;99.90;;;;;;5075404;28;20282;-77
2023/12/09 04:58:05;;;;;;;;;;;11.60;99.90;;;;;;5075382;28;19940;-77
2023/12/09 05:00:31;;;;;;;;;;;11.60;99.90;;;;;;5074947;28;19913;-77
2023/12/09 05:02:57;;;;;;;;;;;11.70;99.90;;;;;;5075435;28;20276;-77
2023/12/09 05:05:22;;;;;;;;;;;11.60;99.90;;;;;;5079886;28;19919;-79
2023/12/09 05:07:48;;;;;;;;;;;11.60;99.90;;;;;;5092508;28;20006;-77
2023/12/09 05:10:13;;;;;;;;;;;11.60;99.90;;;;;;5095176;28;19951;-75
2023/12/09 05:12:39;;;;;;;;;;;11.60;99.90;;;;;;5084446;28;20366;-78
2023/12/09 05:15:05;;;;;;;;;;;11.60;99.90;;;;;;5074872;28;19912;-80
2023/12/09 05:17:31;;;;;;;;;;;11.60;99.90;;;;;;5075003;28;20008;-77
2023/12/09 05:19:57;;;;;;;;;;;11.60;99.90;;;;;;5074778;28;19955;-78
2023/12/09 05:22:23;;;;;;;;;;;11.70;99.90;;;;;;5085098;28;19966;-77
2023/12/09 05:24:48;;;;;;;;;;;11.70;99.90;;;;;;5077034;28;19909;-77
2023/12/09 05:27:14;;;;;;;;;;;11.70;99.90;;;;;;5085360;28;19912;-80
2023/12/09 05:29:39;;;;;;;;;;;11.70;99.90;;;;;;5072934;28;19936;-80
2023/12/09 05:32:05;;;;;;;;;;;11.70;99.90;;;;;;5074938;28;20013;-76
2023/12/09 05:34:31;;;;;;;;;;;11.60;99.90;;;;;;5074613;28;19912;-77
2023/12/09 05:36:57;;;;;;;;;;;11.60;99.90;;;;;;5074935;28;19931;-79
2023/12/09 05:39:22;;;;;;;;;;;11.60;99.90;;;;;;5074462;28;19913;-78
2023/12/09 05:41:48;;;;;;;;;;;11.60;99.90;;;;;;5074454;28;19909;-80
2023/12/09 05:44:13;;;;;;;;;;;11.60;99.90;;;;;;5074198;28;19912;-80
2023/12/09 05:46:40;;;;;;;;;;;11.60;99.90;;;;;;5074234;28;19947;-77
2023/12/09 05:49:05;;;;;;;;;;;11.60;99.90;;;;;;5074330;28;19947;-77
2023/12/09 05:51:31;;;;;;;;;;;11.50;99.90;;;;;;5073667;28;19951;-77
2023/12/09 05:53:56;;;;;;;;;;;11.50;99.90;;;;;;5074011;28;19908;-79
2023/12/09 05:56:22;;;;;;;;;;;11.50;99.90;;;;;;5074177;28;19916;-78
2023/12/09 05:58:48;;;;;;;;;;;11.40;99.90;;;;;;5074135;28;19908;-79
2023/12/09 06:01:13;;;;;;;;;;;11.40;99.90;;;;;;5074054;28;20009;-77
2023/12/09 06:03:39;;;;;;;;;;;11.50;99.90;;;;;;5073866;28;19915;-77
2023/12/09 06:06:05;;;;;;;;;;;11.40;99.90;;;;;;5084256;28;19912;-78
2023/12/09 06:08:31;;;;;;;;;;;11.40;99.90;;;;;;5076136;28;19915;-77
2023/12/09 06:10:57;;;;;;;;;;;11.40;99.90;;;;;;5073954;28;19956;-77
2023/12/09 06:13:23;;;;;;;;;;;11.40;99.90;;;;;;5083471;28;19958;-82
2023/12/09 06:15:48;;;;;;;;;;;11.40;99.90;;;;;;5093877;28;19912;-79
2023/12/09 06:18:15;;;;;;;;;;;11.40;99.90;;;;;;5093425;28;20528;-80
2023/12/09 06:20:41;;;;;;;;;;;11.40;99.90;;;;;;5094045;28;19908;-77
2023/12/09 06:23:07;;;;;;;;;;;11.40;99.90;;;;;;5089704;28;19913;-80
2023/12/09 06:25:32;;;;;;;;;;;11.50;99.90;;;;;;5083986;28;20362;-77
2023/12/09 06:27:58;;;;;;;;;;;11.50;99.90;;;;;;5077356;28;19915;-82
2023/12/09 06:30:23;;;;;;;;;;;11.50;99.90;;;;;;5073284;28;19966;-83
2023/12/09 06:32:49;;;;;;;;;;;11.50;99.90;;;;;;5073948;28;19909;-81
2023/12/09 06:35:14;;;;;;;;;;;11.50;99.90;;;;;;5073463;28;19912;-77
2023/12/09 06:37:40;;;;;;;;;;;11.50;99.90;;;;;;5078742;28;20345;-76
2023/12/09 06:40:05;;;;;;;;;;;11.50;99.90;;;;;;5090635;28;19908;-80
2023/12/09 06:42:31;;;;;;;;;;;11.50;99.90;;;;;;5093676;28;19908;-82
2023/12/09 06:44:56;;;;;;;;;;;11.60;99.90;;;;;;5089299;28;19995;-80
2023/12/09 06:47:23;;;;;;;;;;;11.60;99.90;;;;;;5073425;28;19959;-77
2023/12/09 06:49:49;;;;;;;;;;;11.60;99.90;;;;;;5073470;28;19916;-77
2023/12/09 06:52:15;;;;;;;;;;;11.60;99.90;;;;;;5075435;28;20290;-81
2023/12/09 06:54:40;;;;;;;;;;;11.60;99.90;;;;;;5082191;28;20386;-82
2023/12/09 06:57:06;;;;;;;;;;;11.70;99.90;;;;;;5073268;28;19916;-77
2023/12/09 06:59:31;;;;;;;;;;;11.70;99.90;;;;;;5073212;28;19912;-81
2023/12/09 07:01:57;;;;;;;;;;;11.70;99.90;;;;;;5073507;28;20283;-82
2023/12/09 07:04:23;;;;;;;;;;;11.70;99.90;;;;;;5079994;28;20469;-81
2023/12/09 07:06:48;;;;;;;;;;;11.70;99.90;;;;;;5080294;28;19956;-84
2023/12/09 07:09:13;;;;;;;;;;;11.80;99.90;;;;;;5073230;28;20306;-82
2023/12/09 07:11:39;;;;;;;;;;;11.80;99.90;;;;;;5073357;28;19920;-77
2023/12/09 07:14:05;;;;;;;;;;;11.80;99.90;;;;;;5073219;28;19924;-77
2023/12/09 07:16:31;;;;;;;;;;;11.80;99.90;;;;;;5072905;28;19966;-79
2023/12/09 07:18:59;;;;;;;;;;;11.80;99.90;;;;;;5072786;28;19909;-82
2023/12/09 07:21:26;;;;;;;;;;;11.90;99.90;;;;;;5073217;28;19912;-82
2023/12/09 07:23:52;;;;;;;;;;;11.90;99.90;;;;;;5073246;28;20004;-81
2023/12/09 07:26:18;;;;;;;;;;;11.90;99.90;;;;;;5075862;28;20392;-77
2023/12/09 07:28:44;;;;;;;;;;;11.90;99.90;;;;;;5072890;28;19917;-79
2023/12/09 07:31:10;;;;;;;;;;;12.00;99.90;;;;;;5084926;28;19965;-81
2023/12/09 07:33:35;;;;;;;;;;;12.00;99.90;;;;;;5090750;28;20006;-80
2023/12/09 07:36:01;;;;;;;;;;;12.00;99.90;;;;;;5093012;28;19918;-82
2023/12/09 07:38:27;;;;;;;;;;;12.00;99.90;;;;;;5093229;28;19908;-77
2023/12/09 07:40:52;;;;;;;;;;;12.00;99.90;;;;;;5092889;28;19931;-82
2023/12/09 07:43:18;;;;;;;;;;;12.00;99.90;;;;;;5093062;28;19958;-83
2023/12/09 07:45:43;;;;;;;;;;;12.00;99.90;;;;;;5093066;28;19916;-82
2023/12/09 07:48:09;;;;;;;;;;;12.00;99.90;;;;;;5093072;28;20011;-81
2023/12/09 07:50:35;;;;;;;;;;;12.00;99.90;;;;;;5092887;28;19947;-82
2023/12/09 07:53:01;;;;;;;;;;;12.00;99.90;;;;;;5093669;28;20333;-81
2023/12/09 07:55:26;;;;;;;;;;;12.10;99.90;;;;;;5094279;28;19938;-79
2023/12/09 07:57:51;;;;;;;;;;;12.10;99.90;;;;;;5080590;28;20374;-79
2023/12/09 08:00:17;;;;;;;;;;;12.10;99.90;;;;;;5088585;28;19916;-78
2023/12/09 08:02:43;;;;;;;;;;;12.10;99.90;;;;;;5092661;28;19938;-79
2023/12/09 08:05:09;;;;;;;;;;;12.10;99.90;;;;;;5083886;28;19908;-80
2023/12/09 08:07:34;;;;;;;;;;;12.10;99.90;;;;;;5083460;28;19977;-76
2023/12/09 08:10:00;;;;;;;;;;;12.10;99.90;;;;;;5076337;28;20007;-81
2023/12/09 08:12:26;;;;;;;;;;;12.00;99.90;;;;;;5087544;28;19924;-80
2023/12/09 08:14:52;;;;;;;;;;;12.10;99.90;;;;;;5093816;28;19931;-81
2023/12/09 08:17:17;;;;;;;;;;;12.10;99.90;;;;;;5076111;28;19916;-79
2023/12/09 08:19:43;;;;;;;;;;;12.10;99.90;;;;;;5083408;28;20385;-77
2023/12/09 08:22:12;;;;;;;;;;;12.10;99.90;;;;;;5076136;28;19916;-79
2023/12/09 08:24:37;;;;;;;;;;;12.10;99.90;;;;;;5075847;28;19954;-79
2023/12/09 08:27:03;;;;;;;;;;;12.30;99.90;;;;;;5088146;28;20303;-80
2023/12/09 08:29:28;;;;;;;;;;;12.30;99.90;;;;;;5076135;28;19909;-77
2023/12/09 08:31:54;;;;;;;;;;;12.40;99.90;;;;;;5075463;28;19909;-77
2023/12/09 08:34:19;;;;;;;;;;;12.40;99.90;;;;;;5075817;28;19952;-77
2023/12/09 08:36:45;;;;;;;;;;;12.40;99.90;;;;;;5075483;28;19912;-78
2023/12/09 08:39:11;;;;;;;;;;;12.40;99.90;;;;;;5086413;28;19912;-77
2023/12/09 08:41:37;;;;;;;;;;;12.40;99.90;;;;;;5077248;28;20402;-77
2023/12/09 08:44:03;;;;;;;;;;;12.40;99.90;;;;;;5074146;28;19912;-78
2023/12/09 08:46:29;;;;;;;;;;;12.40;99.90;;;;;;5075519;28;20435;-77
2023/12/09 08:48:54;;;;;;;;;;;12.50;99.90;;;;;;5075592;28;19909;-79
2023/12/09 08:51:20;;;;;;;;;;;12.50;99.90;;;;;;5075608;28;19962;-79
2023/12/09 08:53:45;;;;;;;;;;;12.50;99.90;;;;;;5075566;28;20287;-79
2023/12/09 08:56:11;;;;;;;;;;;12.50;99.90;;;;;;5075581;28;19916;-78
2023/12/09 08:58:36;;;;;;;;;;;12.60;99.90;;;;;;5077774;28;19908;-77
2023/12/09 09:01:02;;;;;;;;;;;12.70;99.90;;;;;;5078948;28;19915;-77
2023/12/09 09:03:28;;;;;;;;;;;12.70;99.90;;;;;;5092627;28;19908;-77
2023/12/09 09:05:53;;;;;;;;;;;12.90;99.90;;;;;;5077123;28;19912;-78
2023/12/09 09:08:19;;;;;;;;;;;13.00;99.90;;;;;;5076620;28;19916;-78
2023/12/09 09:10:45;;;;;;;;;;;13.10;99.90;;;;;;5075000;28;19920;-79
2023/12/09 09:13:10;;;;;;;;;;;13.20;99.90;;;;;;5075195;28;19912;-77
2023/12/09 09:15:36;;;;;;;;;;;13.20;99.90;;;;;;5081811;28;19912;-81
2023/12/09 09:18:02;;;;;;;;;;;13.30;99.90;;;;;;5094999;28;19961;-78
2023/12/09 09:20:27;;;;;;;;;;;13.40;99.90;;;;;;5095087;28;19915;-78
2023/12/09 09:22:53;;;;;;;;;;;13.30;99.90;;;;;;5077397;28;19966;-78
2023/12/09 09:25:18;;;;;;;;;;;13.40;99.90;;;;;;5076251;28;20385;-78
2023/12/09 09:27:44;;;;;;;;;;;13.40;99.90;;;;;;5085471;28;19959;-76
2023/12/09 09:30:10;;;;;;;;;;;13.40;99.90;;;;;;5074605;28;19912;-78
2023/12/09 09:32:35;;;;;;;;;;;13.40;99.90;;;;;;5074337;28;20008;-78
2023/12/09 09:35:01;;;;;;;;;;;13.50;99.90;;;;;;5074342;28;19966;-78
2023/12/09 09:37:27;;;;;;;;;;;13.50;99.90;;;;;;5073773;28;19978;-78
2023/12/09 09:39:53;;;;;;;;;;;13.50;99.90;;;;;;5082142;28;19935;-77
2023/12/09 09:42:25;;;;;;;;;;;13.60;99.90;;;;;;5089182;28;20379;-78
2023/12/09 09:45:05;;;;;;;;;;;13.60;99.90;;;;;;5094630;28;20386;-79
2023/12/09 09:47:39;;;;;;;;;;;13.70;99.90;;;;;;5094373;28;19908;-78
2023/12/09 09:50:06;;;;;;;;;;;13.80;99.90;;;;;;5094594;28;19908;-78
2023/12/09 09:52:34;;;;;;;;;;;13.80;99.90;;;;;;5078985;28;20011;-78
2023/12/09 09:55:00;;;;;;;;;;;13.90;99.90;;;;;;5074361;28;19923;-77
2023/12/09 09:57:26;;;;;;;;;;;14.00;99.90;;;;;;5082886;28;20426;-79
2023/12/09 09:59:55;;;;;;;;;;;14.00;99.90;;;;;;5074048;28;19908;-78
2023/12/09 10:02:21;;;;;;;;;;;14.10;99.90;;;;;;5074099;28;19909;-78
2023/12/09 10:04:46;;;;;;;;;;;14.10;99.90;;;;;;5074475;28;20006;-78
2023/12/09 10:07:12;;;;;;;;;;;14.20;99.90;;;;;;5084350;28;19912;-76
2023/12/09 10:09:38;;;;;;;;;;;14.20;99.90;;;;;;5073731;28;19908;-75
2023/12/09 10:12:03;;;;;;;;;;;14.30;99.90;;;;;;5081064;28;19924;-79
2023/12/09 10:14:29;;;;;;;;;;;14.30;99.90;;;;;;5093780;28;19935;-78
2023/12/09 10:16:54;;;;;;;;;;;14.30;99.90;;;;;;5093944;28;19913;-77
2023/12/09 10:19:20;;;;;;;;;;;14.40;99.90;;;;;;5093968;28;20414;-79
2023/12/09 10:21:46;;;;;;;;;;;14.40;99.90;;;;;;5093412;28;19993;-77
2023/12/09 10:24:11;;;;;;;;;;;14.40;99.90;;;;;;5092432;28;19908;-78
2023/12/09 10:26:38;;;;;;;;;;;14.40;99.90;;;;;;5081386;28;19999;-78
2023/12/09 10:29:03;;;;;;;;;;;14.40;99.90;;;;;;5089793;28;19912;-78
2023/12/09 10:31:30;;;;;;;;;;;14.40;99.90;;;;;;5078578;28;19908;-78
2023/12/09 10:33:56;;;;;;;;;;;14.50;99.90;;;;;;5073769;28;19908;-76
2023/12/09 10:36:22;;;;;;;;;;;14.50;99.90;;;;;;5073281;28;19962;-77
2023/12/09 10:38:51;;;;;;;;;;;14.50;99.90;;;;;;5073208;28;19908;-79
2023/12/09 10:41:16;;;;;;;;;;;14.50;99.90;;;;;;5073423;28;19915;-77
2023/12/09 10:43:42;;;;;;;;;;;14.50;99.90;;;;;;5073414;28;19908;-77
2023/12/09 10:46:08;;;;;;;;;;;14.60;99.90;;;;;;5073302;28;20303;-79
2023/12/09 10:48:34;;;;;;;;;;;14.60;99.90;;;;;;5073041;28;20774;-78
2023/12/09 10:51:01;;;;;;;;;;;14.60;99.90;;;;;;5073529;28;19999;-78
2023/12/09 10:53:26;;;;;;;;;;;14.60;99.90;;;;;;5073534;28;19955;-79
2023/12/09 10:55:52;;;;;;;;;;;14.60;99.90;;;;;;5073077;28;19964;-78
2023/12/09 10:58:18;;;;;;;;;;;14.60;99.90;;;;;;5073237;28;20367;-78
2023/12/09 11:00:45;;;;;;;;;;;14.60;99.90;;;;;;5071883;28;19913;-78
2023/12/09 11:03:11;;;;;;;;;;;14.60;99.90;;;;;;5073364;28;19908;-76
2023/12/09 11:05:42;;;;;;;;;;;14.70;99.90;;;;;;5075748;28;19913;-78
2023/12/09 11:08:09;;;;;;;;;;;14.70;99.90;;;;;;5074157;28;19932;-79
2023/12/09 11:10:34;;;;;;;;;;;14.70;99.90;;;;;;5089306;28;20477;-78
2023/12/09 11:13:00;;;;;;;;;;;14.70;99.90;;;;;;5079950;28;19913;-76
2023/12/09 11:15:30;;;;;;;;;;;14.70;99.90;;;;;;5073210;28;19916;-76
2023/12/09 11:18:22;;;;;;;;;;;14.70;99.90;;;;;;5073043;28;19916;-76
2023/12/09 11:20:51;;;;;;;;;;;14.70;99.90;;;;;;5071142;28;19968;-78
2023/12/09 11:23:16;;;;;;;;;;;14.70;99.90;;;;;;5090053;28;19908;-77
2023/12/09 11:25:43;;;;;;;;;;;14.70;99.90;;;;;;5089627;28;19919;-77
2023/12/09 11:28:12;;;;;;;;;;;14.80;99.90;;;;;;5084031;28;19943;-77
2023/12/09 11:30:41;;;;;;;;;;;14.70;99.90;;;;;;5076357;28;20008;-79
2023/12/09 11:33:07;;;;;;;;;;;14.80;99.90;;;;;;5077675;28;20290;-77
2023/12/09 11:35:34;;;;;;;;;;;14.80;99.90;;;;;;5097166;28;19938;-77
2023/12/09 11:38:01;;;;;;;;;;;14.80;99.90;;;;;;5097361;28;19916;-79
2023/12/09 11:40:30;;;;;;;;;;;14.80;99.90;;;;;;5097225;28;19908;-81
2023/12/09 11:42:59;;;;;;;;;;;14.80;99.90;;;;;;5097291;28;19908;-81
2023/12/09 11:45:27;;;;;;;;;;;14.70;99.90;;;;;;5096885;28;19909;-78
2023/12/09 11:47:53;;;;;;;;;;;14.80;99.90;;;;;;5097072;28;19940;-79
2023/12/09 11:50:18;;;;;;;;;;;14.80;99.90;;;;;;5095839;28;19912;-81
2023/12/09 11:52:44;;;;;;;;;;;14.80;99.90;;;;;;5095727;28;20366;-82
2023/12/09 11:55:15;;;;;;;;;;;14.80;99.90;;;;;;5096362;28;19912;-82
2023/12/09 11:57:51;;;;;;;;;;;14.80;99.90;;;;;;5075388;28;19931;-79
2023/12/09 12:00:20;;;;;;;;;;;14.80;99.90;;;;;;5075154;28;19909;-77
2023/12/09 12:02:55;;;;;;;;;;;14.80;99.90;;;;;;5074430;28;19954;-75
2023/12/09 12:05:21;;;;;;;;;;;14.80;99.90;;;;;;5077138;28;19974;-78
2023/12/09 12:08:00;;;;;;;;;;;14.90;99.90;;;;;;5075608;28;20259;-76
2023/12/09 12:10:36;;;;;;;;;;;14.80;99.90;;;;;;5090423;28;19920;-76
2023/12/09 12:13:02;;;;;;;;;;;14.90;99.90;;;;;;5086858;28;20371;-78
2023/12/09 12:15:28;;;;;;;;;;;15.00;99.90;;;;;;5094840;28;19918;-78
2023/12/09 12:17:53;;;;;;;;;;;15.00;99.90;;;;;;5095035;28;19912;-76
2023/12/09 12:20:19;;;;;;;;;;;14.90;99.90;;;;;;5094834;28;19909;-80
2023/12/09 12:22:58;;;;;;;;;;;14.80;99.90;;;;;;5129094;27;19957;-78
2023/12/09 12:25:25;;;;;;;;;;;14.80;99.90;;;;;;5093463;28;19912;-77
2023/12/09 12:28:02;;;;;;;;;;;14.90;99.90;;;;;;5085451;28;19912;-78
2023/12/09 12:30:27;;;;;;;;;;;14.90;99.90;;;;;;5071196;28;19938;-78
2023/12/09 12:33:07;;;;;;;;;;;14.90;99.90;;;;;;5053813;28;20429;-76
2023/12/09 12:35:38;;;;;;;;;;;14.90;99.90;;;;;;5054172;28;19921;-78
2023/12/09 12:38:17;;;;;;;;;;;14.90;99.90;;;;;;5053883;28;20311;-77
2023/12/09 12:40:46;;;;;;;;;;;14.90;99.90;;;;;;5054058;28;19974;-77
2023/12/09 12:43:13;;;;;;;;;;;14.90;99.90;;;;;;5054192;28;20379;-75
2023/12/09 12:45:40;;;;;;;;;;;14.90;99.90;;;;;;5054116;28;20003;-79
2023/12/09 12:48:06;;;;;;;;;;;14.90;99.90;;;;;;5064132;28;19912;-79
2023/12/09 12:50:31;;;;;;;;;;;14.90;99.90;;;;;;5074107;28;19920;-77
2023/12/09 12:52:57;;;;;;;;;;;14.90;99.90;;;;;;5073728;28;19908;-81
2023/12/09 12:55:26;;;;;;;;;;;14.90;99.90;;;;;;5074012;28;19965;-79
2023/12/09 12:57:51;;;;;;;;;;;14.80;99.90;;;;;;5107912;28;19954;-79
2023/12/09 13:00:30;;;;;;;;;;;14.80;99.90;;;;;;5107874;28;19909;-77
2023/12/09 13:03:09;;;;;;;;;;;14.90;99.90;;;;;;5108087;28;19909;-77
2023/12/09 13:05:34;;;;;;;;;;;14.90;99.90;;;;;;5111461;27;19912;-77
2023/12/09 13:08:00;;;;;;;;;;;14.90;99.90;;;;;;5077937;28;19916;-79
2023/12/09 13:10:31;;;;;;;;;;;14.80;99.90;;;;;;5075512;28;19916;-78
2023/12/09 13:13:07;;;;;;;;;;;14.80;99.90;;;;;;5074061;28;19912;-77
2023/12/09 13:15:43;;;;;;;;;;;14.80;99.90;;;;;;5073271;28;19912;-78
2023/12/09 13:18:12;;;;;;;;;;;14.80;99.90;;;;;;5090459;28;19915;-77
2023/12/09 13:20:38;;;;;;;;;;;14.70;99.90;;;;;;5093513;28;19908;-78
2023/12/09 13:23:15;;;;;;;;;;;14.80;99.90;;;;;;5093904;28;19912;-78
2023/12/09 13:25:41;;;;;;;;;;;14.70;99.90;;;;;;5084027;28;19950;-79
2023/12/09 13:28:07;;;;;;;;;;;14.70;99.90;;;;;;5080210;28;19944;-79
2023/12/09 13:30:33;;;;;;;;;;;14.70;99.90;;;;;;5082967;28;19948;-77
2023/12/09 13:33:01;;;;;;;;;;;14.70;99.90;;;;;;5053177;28;19913;-79
2023/12/09 13:35:28;;;;;;;;;;;14.70;99.90;;;;;;5053482;28;19936;-77
2023/12/09 13:38:15;;;;;;;;;;;14.70;99.90;;;;;;5053010;28;19959;-76
2023/12/09 13:40:44;;;;;;;;;;;14.70;99.90;;;;;;5053440;28;19974;-79
2023/12/09 13:43:12;;;;;;;;;;;14.50;99.90;;;;;;5070661;28;20394;-79
2023/12/09 13:45:51;;;;;;;;;;;14.60;99.90;;;;;;5072809;28;20493;-77
2023/12/09 13:48:28;;;;;;;;;;;14.60;99.90;;;;;;5073199;28;19995;-78
2023/12/09 13:51:08;;;;;;;;;;;14.70;99.90;;;;;;5072494;28;19985;-78
2023/12/09 13:53:35;;;;;;;;;;;14.70;99.90;;;;;;5072507;28;19917;-78
2023/12/09 13:56:26;;;;;;;;;;;14.80;99.90;;;;;;5105132;28;19916;-78
2023/12/09 13:59:03;;;;;;;;;;;14.80;99.90;;;;;;5106944;28;19931;-77
2023/12/09 14:01:43;;;;;;;;;;;14.90;99.90;;;;;;5105140;28;19915;-78
2023/12/09 14:04:22;;;;;;;;;;;14.90;99.90;;;;;;5105132;28;19916;-77
2023/12/09 14:06:47;;;;;;;;;;;15.00;99.90;;;;;;5085204;28;19908;-80
2023/12/09 14:09:14;;;;;;;;;;;14.90;99.90;;;;;;5094478;28;19962;-77
2023/12/09 14:11:40;;;;;;;;;;;14.90;99.90;;;;;;5088894;28;19921;-80
2023/12/09 14:14:07;;;;;;;;;;;14.90;99.90;;;;;;5077005;28;20274;-78